sensor_id;sensor_type;location;lat;lon;timestamp;temperature;humidity
11140;DHT22;5624;49.388;11.350;2024-01-15T00:01:16;-4.90;99.90
11140;DHT22;5624;49.388;11.350;2024-01-15T00:03:42;-4.80;99.90
11140;DHT22;5624;49.388;11.350;2024-01-15T00:06:07;-4.80;99.90
11140;DHT22;5624;49.388;11.350;2024-01-15T00:08:33;-4.80;99.90
11140;DHT22;5624;49.388;11.350;2024-01-15T00:10:58;-4.90;99.90
11140;DHT22;5624;49.388;11.350;2024-01-15T00:13:24;-4.90;99.90
11140;DHT22;5624;49.388;11.350;2024-01-15T00:15:49;-4.90;99.90
11140;DHT22;5624;49.388;11.350;2024-01-15T00:18:15;-4.90;99.90
11140;DHT22;5624;49.388;11.350;2024-01-15T00:20:41;-4.90;99.90
11140;DHT22;5624;49.388;11.350;2024-01-15T00:23:06;-4.90;99.90
11140;DHT22;5624;49.388;11.350;2024-01-15T00:25:32;-4.90;99.90
11140;DHT22;5624;49.388;11.350;2024-01-15T00:27:57;-4.90;99.90
11140;DHT22;5624;49.388;11.350;2024-01-15T00:30:23;-4.90;99.90
11140;DHT22;5624;49.388;11.350;2024-01-15T00:32:48;-5.00;99.90
11140;DHT22;5624;49.388;11.350;2024-01-15T00:35:14;-5.00;99.90
11140;DHT22;5624;49.388;11.350;2024-01-15T00:37:40;-4.90;99.90
11140;DHT22;5624;49.388;11.350;2024-01-15T00:40:06;-5.00;99.90
11140;DHT22;5624;49.388;11.350;2024-01-15T00:42:33;-5.00;99.90
11140;DHT22;5624;49.388;11.350;2024-01-15T00:44:58;-5.00;99.90
11140;DHT22;5624;49.388;11.350;2024-01-15T00:47:24;-5.00;99.90
11140;DHT22;5624;49.388;11.350;2024-01-15T00:49:49;-5.00;99.90
11140;DHT22;5624;49.388;11.350;2024-01-15T00:52:15;-5.00;99.90
11140;DHT22;5624;49.388;11.350;2024-01-15T00:54:40;-5.10;99.90
11140;DHT22;5624;49.388;11.350;2024-01-15T00:57:06;-5.10;99.90
11140;DHT22;5624;49.388;11.350;2024-01-15T00:59:31;-5.20;99.90
11140;DHT22;5624;49.388;11.350;2024-01-15T01:01:57;-5.10;99.90
11140;DHT22;5624;49.388;11.350;2024-01-15T01:04:22;-5.10;99.90
11140;DHT22;5624;49.388;11.350;2024-01-15T01:06:48;-5.10;99.90
11140;DHT22;5624;49.388;11.350;2024-01-15T01:09:13;-5.10;99.90
11140;DHT22;5624;49.388;11.350;2024-01-15T01:11:39;-5.10;99.90
11140;DHT22;5624;49.388;11.350;2024-01-15T01:14:05;-5.00;99.90
11140;DHT22;5624;49.388;11.350;2024-01-15T01:16:30;-5.00;99.90
11140;DHT22;5624;49.388;11.350;2024-01-15T01:18:56;-5.00;99.90
11140;DHT22;5624;49.388;11.350;2024-01-15T01:21:22;-5.00;99.90
11140;DHT22;5624;49.388;11.350;2024-01-15T01:23:47;-5.00;99.90
11140;DHT22;5624;49.388;11.350;2024-01-15T01:26:17;-4.90;99.90
11140;DHT22;5624;49.388;11.350;2024-01-15T01:28:43;-4.90;99.90
11140;DHT22;5624;49.388;11.350;2024-01-15T01:31:08;-4.90;99.90
11140;DHT22;5624;49.388;11.350;2024-01-15T01:33:34;-4.90;99.90
11140;DHT22;5624;49.388;11.350;2024-01-15T01:35:59;-4.90;99.90
11140;DHT22;5624;49.388;11.350;2024-01-15T01:38:25;-4.80;99.90
11140;DHT22;5624;49.388;11.350;2024-01-15T01:40:50;-4.80;99.90
11140;DHT22;5624;49.388;11.350;2024-01-15T01:43:16;-4.80;99.90
11140;DHT22;5624;49.388;11.350;2024-01-15T01:45:41;-4.80;99.90
11140;DHT22;5624;49.388;11.350;2024-01-15T01:48:07;-4.80;99.90
11140;DHT22;5624;49.388;11.350;2024-01-15T01:50:33;-4.90;99.90
11140;DHT22;5624;49.388;11.350;2024-01-15T01:53:00;-4.80;99.90
11140;DHT22;5624;49.388;11.350;2024-01-15T01:55:27;-4.70;99.90
11140;DHT22;5624;49.388;11.350;2024-01-15T01:57:53;-4.80;99.90
11140;DHT22;5624;49.388;11.350;2024-01-15T02:00:19;-4.70;99.90
11140;DHT22;5624;49.388;11.350;2024-01-15T02:02:45;-4.80;99.90
11140;DHT22;5624;49.388;11.350;2024-01-15T02:05:12;-4.80;99.90
11140;DHT22;5624;49.388;11.350;2024-01-15T02:07:39;-4.70;99.90
11140;DHT22;5624;49.388;11.350;2024-01-15T02:10:06;-4.80;99.90
11140;DHT22;5624;49.388;11.350;2024-01-15T02:12:32;-4.80;99.90
11140;DHT22;5624;49.388;11.350;2024-01-15T02:14:57;-4.70;99.90
11140;DHT22;5624;49.388;11.350;2024-01-15T02:17:23;-4.70;99.90
11140;DHT22;5624;49.388;11.350;2024-01-15T02:19:49;-4.60;99.90
11140;DHT22;5624;49.388;11.350;2024-01-15T02:22:15;-4.60;99.90
11140;DHT22;5624;49.388;11.350;2024-01-15T02:24:41;-4.60;99.90
11140;DHT22;5624;49.388;11.350;2024-01-15T02:27:07;-4.60;99.90
11140;DHT22;5624;49.388;11.350;2024-01-15T02:29:33;-4.50;99.90
11140;DHT22;5624;49.388;11.350;2024-01-15T02:31:58;-4.40;99.90
11140;DHT22;5624;49.388;11.350;2024-01-15T02:34:24;-4.40;99.90
11140;DHT22;5624;49.388;11.350;2024-01-15T02:36:49;-4.40;99.90
11140;DHT22;5624;49.388;11.350;2024-01-15T02:39:15;-4.30;99.90
11140;DHT22;5624;49.388;11.350;2024-01-15T02:41:40;-4.40;99.90
11140;DHT22;5624;49.388;11.350;2024-01-15T02:44:06;-4.30;99.90
11140;DHT22;5624;49.388;11.350;2024-01-15T02:46:31;-4.30;99.90
11140;DHT22;5624;49.388;11.350;2024-01-15T02:48:57;-4.30;99.90
11140;DHT22;5624;49.388;11.350;2024-01-15T02:51:22;-4.30;99.90
11140;DHT22;5624;49.388;11.350;2024-01-15T02:53:49;-4.20;99.90
11140;DHT22;5624;49.388;11.350;2024-01-15T02:56:15;-4.30;99.90
11140;DHT22;5624;49.388;11.350;2024-01-15T02:58:41;-4.20;99.90
11140;DHT22;5624;49.388;11.350;2024-01-15T03:01:06;-4.20;99.90
11140;DHT22;5624;49.388;11.350;2024-01-15T03:03:32;-4.20;99.90
11140;DHT22;5624;49.388;11.350;2024-01-15T03:05:58;-4.10;99.90
11140;DHT22;5624;49.388;11.350;2024-01-15T03:08:24;-4.10;99.90
11140;DHT22;5624;49.388;11.350;2024-01-15T03:10:49;-4.10;99.90
11140;DHT22;5624;49.388;11.350;2024-01-15T03:13:15;-4.10;99.90
11140;DHT22;5624;49.388;11.350;2024-01-15T03:15:40;-4.00;99.90
11140;DHT22;5624;49.388;11.350;2024-01-15T03:18:06;-4.00;99.90
11140;DHT22;5624;49.388;11.350;2024-01-15T03:20:31;-4.00;99.90
11140;DHT22;5624;49.388;11.350;2024-01-15T03:22:57;-4.00;99.90
11140;DHT22;5624;49.388;11.350;2024-01-15T03:25:22;-4.00;99.90
11140;DHT22;5624;49.388;11.350;2024-01-15T03:27:48;-3.90;99.90
11140;DHT22;5624;49.388;11.350;2024-01-15T03:30:13;-4.00;99.90
11140;DHT22;5624;49.388;11.350;2024-01-15T03:32:39;-3.90;99.90
11140;DHT22;5624;49.388;11.350;2024-01-15T03:35:05;-3.90;99.90
11140;DHT22;5624;49.388;11.350;2024-01-15T03:37:30;-3.90;99.90
11140;DHT22;5624;49.388;11.350;2024-01-15T03:39:56;-3.90;99.90
11140;DHT22;5624;49.388;11.350;2024-01-15T03:42:22;-3.90;99.90
11140;DHT22;5624;49.388;11.350;2024-01-15T03:44:47;-3.90;99.90
11140;DHT22;5624;49.388;11.350;2024-01-15T03:47:14;-4.00;99.90
11140;DHT22;5624;49.388;11.350;2024-01-15T03:49:39;-3.90;99.90
11140;DHT22;5624;49.388;11.350;2024-01-15T03:52:05;-4.00;99.90
11140;DHT22;5624;49.388;11.350;2024-01-15T03:54:31;-3.90;99.90
11140;DHT22;5624;49.388;11.350;2024-01-15T03:56:56;-3.90;99.90
11140;DHT22;5624;49.388;11.350;2024-01-15T03:59:21;-3.90;99.90
11140;DHT22;5624;49.388;11.350;2024-01-15T04:01:50;-3.90;99.90
11140;DHT22;5624;49.388;11.350;2024-01-15T04:04:18;-3.90;99.90
11140;DHT22;5624;49.388;11.350;2024-01-15T04:06:44;-3.90;99.90
11140;DHT22;5624;49.388;11.350;2024-01-15T04:09:09;-3.90;99.90
11140;DHT22;5624;49.388;11.350;2024-01-15T04:11:35;-3.90;99.90
11140;DHT22;5624;49.388;11.350;2024-01-15T04:14:00;-3.80;99.90
11140;DHT22;5624;49.388;11.350;2024-01-15T04:16:26;-3.80;99.90
11140;DHT22;5624;49.388;11.350;2024-01-15T04:18:51;-3.90;99.90
11140;DHT22;5624;49.388;11.350;2024-01-15T04:21:17;-3.80;99.90
11140;DHT22;5624;49.388;11.350;2024-01-15T04:23:43;-3.80;99.90
11140;DHT22;5624;49.388;11.350;2024-01-15T04:26:09;-3.80;99.90
11140;DHT22;5624;49.388;11.350;2024-01-15T04:28:35;-3.80;99.90
11140;DHT22;5624;49.388;11.350;2024-01-15T04:31:00;-3.80;99.90
11140;DHT22;5624;49.388;11.350;2024-01-15T04:33:26;-3.80;99.90
11140;DHT22;5624;49.388;11.350;2024-01-15T04:35:51;-3.80;99.90
11140;DHT22;5624;49.388;11.350;2024-01-15T04:38:16;-3.80;99.90
11140;DHT22;5624;49.388;11.350;2024-01-15T04:40:42;-3.70;99.90
11140;DHT22;5624;49.388;11.350;2024-01-15T04:43:08;-3.70;99.90
11140;DHT22;5624;49.388;11.350;2024-01-15T04:45:33;-3.70;99.90
11140;DHT22;5624;49.388;11.350;2024-01-15T04:47:59;-3.70;99.90
11140;DHT22;5624;49.388;11.350;2024-01-15T04:50:25;-3.70;99.90
11140;DHT22;5624;49.388;11.350;2024-01-15T04:52:50;-3.70;99.90
11140;DHT22;5624;49.388;11.350;2024-01-15T04:55:16;-3.70;99.90
11140;DHT22;5624;49.388;11.350;2024-01-15T04:57:41;-3.70;99.90
11140;DHT22;5624;49.388;11.350;2024-01-15T05:00:07;-3.70;99.90
11140;DHT22;5624;49.388;11.350;2024-01-15T05:02:33;-3.60;99.90
11140;DHT22;5624;49.388;11.350;2024-01-15T05:04:59;-3.60;99.90
11140;DHT22;5624;49.388;11.350;2024-01-15T05:07:24;-3.60;99.90
11140;DHT22;5624;49.388;11.350;2024-01-15T05:09:50;-3.60;99.90
11140;DHT22;5624;49.388;11.350;2024-01-15T05:12:15;-3.60;99.90
11140;DHT22;5624;49.388;11.350;2024-01-15T05:14:41;-3.60;99.90
11140;DHT22;5624;49.388;11.350;2024-01-15T05:17:06;-3.60;99.90
11140;DHT22;5624;49.388;11.350;2024-01-15T05:19:31;-3.60;99.90
11140;DHT22;5624;49.388;11.350;2024-01-15T05:21:57;-3.60;99.90
11140;DHT22;5624;49.388;11.350;2024-01-15T05:24:22;-3.60;99.90
11140;DHT22;5624;49.388;11.350;2024-01-15T05:26:48;-3.50;99.90
11140;DHT22;5624;49.388;11.350;2024-01-15T05:29:13;-3.60;99.90
11140;DHT22;5624;49.388;11.350;2024-01-15T05:31:39;-3.60;99.90
11140;DHT22;5624;49.388;11.350;2024-01-15T05:34:04;-3.60;99.90
11140;DHT22;5624;49.388;11.350;2024-01-15T05:36:30;-3.50;99.90
11140;DHT22;5624;49.388;11.350;2024-01-15T05:38:55;-3.50;99.90
11140;DHT22;5624;49.388;11.350;2024-01-15T05:41:21;-3.50;99.90
11140;DHT22;5624;49.388;11.350;2024-01-15T05:43:47;-3.50;99.90
11140;DHT22;5624;49.388;11.350;2024-01-15T05:46:12;-3.50;99.90
11140;DHT22;5624;49.388;11.350;2024-01-15T05:48:38;-3.50;99.90
11140;DHT22;5624;49.388;11.350;2024-01-15T05:51:04;-3.40;99.90
11140;DHT22;5624;49.388;11.350;2024-01-15T05:53:29;-3.40;99.90
11140;DHT22;5624;49.388;11.350;2024-01-15T05:55:55;-3.40;99.90
11140;DHT22;5624;49.388;11.350;2024-01-15T05:58:21;-3.40;99.90
11140;DHT22;5624;49.388;11.350;2024-01-15T06:00:46;-3.40;99.90
11140;DHT22;5624;49.388;11.350;2024-01-15T06:03:13;-3.40;99.90
11140;DHT22;5624;49.388;11.350;2024-01-15T06:05:38;-3.40;99.90
11140;DHT22;5624;49.388;11.350;2024-01-15T06:08:05;-3.40;99.90
11140;DHT22;5624;49.388;11.350;2024-01-15T06:10:30;-3.40;99.90
11140;DHT22;5624;49.388;11.350;2024-01-15T06:12:56;-3.40;99.90
11140;DHT22;5624;49.388;11.350;2024-01-15T06:15:21;-3.30;99.90
11140;DHT22;5624;49.388;11.350;2024-01-15T06:17:47;-3.30;99.90
11140;DHT22;5624;49.388;11.350;2024-01-15T06:20:13;-3.30;99.90
11140;DHT22;5624;49.388;11.350;2024-01-15T06:22:38;-3.20;99.90
11140;DHT22;5624;49.388;11.350;2024-01-15T06:25:06;-3.20;99.90
11140;DHT22;5624;49.388;11.350;2024-01-15T06:27:32;-3.20;99.90
11140;DHT22;5624;49.388;11.350;2024-01-15T06:29:57;-3.20;99.90
11140;DHT22;5624;49.388;11.350;2024-01-15T06:32:23;-3.20;99.90
11140;DHT22;5624;49.388;11.350;2024-01-15T06:34:48;-3.20;99.90
11140;DHT22;5624;49.388;11.350;2024-01-15T06:37:14;-3.20;99.90
11140;DHT22;5624;49.388;11.350;2024-01-15T06:39:39;-3.20;99.90
11140;DHT22;5624;49.388;11.350;2024-01-15T06:42:05;-3.20;99.90
11140;DHT22;5624;49.388;11.350;2024-01-15T06:44:31;-3.10;99.90
11140;DHT22;5624;49.388;11.350;2024-01-15T06:46:56;-3.10;99.90
11140;DHT22;5624;49.388;11.350;2024-01-15T06:49:25;-3.10;99.90
11140;DHT22;5624;49.388;11.350;2024-01-15T06:51:50;-3.00;99.90
11140;DHT22;5624;49.388;11.350;2024-01-15T06:54:16;-3.10;99.90
11140;DHT22;5624;49.388;11.350;2024-01-15T06:56:41;-3.00;99.90
11140;DHT22;5624;49.388;11.350;2024-01-15T06:59:07;-3.00;99.90
11140;DHT22;5624;49.388;11.350;2024-01-15T07:01:32;-3.00;99.90
11140;DHT22;5624;49.388;11.350;2024-01-15T07:03:58;-3.00;99.90
11140;DHT22;5624;49.388;11.350;2024-01-15T07:06:23;-3.00;99.90
11140;DHT22;5624;49.388;11.350;2024-01-15T07:08:49;-3.00;99.90
11140;DHT22;5624;49.388;11.350;2024-01-15T07:11:15;-3.00;99.90
11140;DHT22;5624;49.388;11.350;2024-01-15T07:13:40;-3.00;99.90
11140;DHT22;5624;49.388;11.350;2024-01-15T07:16:06;-3.00;99.90
11140;DHT22;5624;49.388;11.350;2024-01-15T07:18:32;-3.00;99.90
11140;DHT22;5624;49.388;11.350;2024-01-15T07:20:58;-3.00;99.90
11140;DHT22;5624;49.388;11.350;2024-01-15T07:23:24;-3.00;99.90
11140;DHT22;5624;49.388;11.350;2024-01-15T07:25:50;-3.00;99.90
11140;DHT22;5624;49.388;11.350;2024-01-15T07:28:15;-3.00;99.90
11140;DHT22;5624;49.388;11.350;2024-01-15T07:30:41;-3.00;99.90
11140;DHT22;5624;49.388;11.350;2024-01-15T07:33:06;-2.90;99.90
11140;DHT22;5624;49.388;11.350;2024-01-15T07:35:32;-3.00;99.90
11140;DHT22;5624;49.388;11.350;2024-01-15T07:37:57;-3.00;99.90
11140;DHT22;5624;49.388;11.350;2024-01-15T07:40:23;-2.90;99.90
11140;DHT22;5624;49.388;11.350;2024-01-15T07:42:50;-2.90;99.90
11140;DHT22;5624;49.388;11.350;2024-01-15T07:45:16;-2.90;99.90
11140;DHT22;5624;49.388;11.350;2024-01-15T07:47:41;-2.90;99.90
11140;DHT22;5624;49.388;11.350;2024-01-15T07:50:07;-2.90;99.90
11140;DHT22;5624;49.388;11.350;2024-01-15T07:52:33;-2.90;99.90
11140;DHT22;5624;49.388;11.350;2024-01-15T07:54:58;-2.90;99.90
11140;DHT22;5624;49.388;11.350;2024-01-15T07:57:28;-2.90;99.90
11140;DHT22;5624;49.388;11.350;2024-01-15T07:59:54;-2.90;99.90
11140;DHT22;5624;49.388;11.350;2024-01-15T08:02:20;-2.90;99.90
11140;DHT22;5624;49.388;11.350;2024-01-15T08:04:45;-2.90;99.90
11140;DHT22;5624;49.388;11.350;2024-01-15T08:07:11;-2.80;99.90
11140;DHT22;5624;49.388;11.350;2024-01-15T08:09:36;-2.80;99.90
11140;DHT22;5624;49.388;11.350;2024-01-15T08:12:02;-2.70;99.90
11140;DHT22;5624;49.388;11.350;2024-01-15T08:14:28;-2.70;99.90
11140;DHT22;5624;49.388;11.350;2024-01-15T08:16:53;-2.70;99.90
11140;DHT22;5624;49.388;11.350;2024-01-15T08:19:19;-2.70;99.90
11140;DHT22;5624;49.388;11.350;2024-01-15T08:21:47;-2.80;99.90
11140;DHT22;5624;49.388;11.350;2024-01-15T08:24:14;-2.70;99.90
11140;DHT22;5624;49.388;11.350;2024-01-15T08:26:39;-2.70;99.90
11140;DHT22;5624;49.388;11.350;2024-01-15T08:29:05;-2.70;99.90
11140;DHT22;5624;49.388;11.350;2024-01-15T08:31:31;-2.70;99.90
11140;DHT22;5624;49.388;11.350;2024-01-15T08:33:56;-2.70;99.90
11140;DHT22;5624;49.388;11.350;2024-01-15T08:36:23;-2.60;99.90
11140;DHT22;5624;49.388;11.350;2024-01-15T08:38:49;-2.60;99.90
11140;DHT22;5624;49.388;11.350;2024-01-15T08:41:15;-2.60;99.90
11140;DHT22;5624;49.388;11.350;2024-01-15T08:43:40;-2.60;99.90
11140;DHT22;5624;49.388;11.350;2024-01-15T08:46:06;-2.50;99.90
11140;DHT22;5624;49.388;11.350;2024-01-15T08:48:32;-2.50;99.90
11140;DHT22;5624;49.388;11.350;2024-01-15T08:50:58;-2.50;99.90
11140;DHT22;5624;49.388;11.350;2024-01-15T08:53:23;-2.50;99.90
11140;DHT22;5624;49.388;11.350;2024-01-15T08:55:49;-2.50;99.90
11140;DHT22;5624;49.388;11.350;2024-01-15T08:58:14;-2.50;99.90
11140;DHT22;5624;49.388;11.350;2024-01-15T09:00:40;-2.50;99.90
11140;DHT22;5624;49.388;11.350;2024-01-15T09:03:06;-2.40;99.90
11140;DHT22;5624;49.388;11.350;2024-01-15T09:05:31;-2.40;99.90
11140;DHT22;5624;49.388;11.350;2024-01-15T09:07:57;-2.40;99.90
11140;DHT22;5624;49.388;11.350;2024-01-15T09:10:22;-2.40;99.90
11140;DHT22;5624;49.388;11.350;2024-01-15T09:12:48;-2.30;99.90
11140;DHT22;5624;49.388;11.350;2024-01-15T09:15:17;-2.30;99.90
11140;DHT22;5624;49.388;11.350;2024-01-15T09:17:43;-2.30;99.90
11140;DHT22;5624;49.388;11.350;2024-01-15T09:20:09;-2.30;99.90
11140;DHT22;5624;49.388;11.350;2024-01-15T09:22:35;-2.20;99.90
11140;DHT22;5624;49.388;11.350;2024-01-15T09:25:03;-2.20;99.90
11140;DHT22;5624;49.388;11.350;2024-01-15T09:27:29;-2.20;99.90
11140;DHT22;5624;49.388;11.350;2024-01-15T09:29:55;-2.20;99.90
11140;DHT22;5624;49.388;11.350;2024-01-15T09:32:20;-2.20;99.90
11140;DHT22;5624;49.388;11.350;2024-01-15T09:34:46;-2.10;99.90
11140;DHT22;5624;49.388;11.350;2024-01-15T09:37:12;-2.10;99.90
11140;DHT22;5624;49.388;11.350;2024-01-15T09:39:39;-2.00;99.90
11140;DHT22;5624;49.388;11.350;2024-01-15T09:42:05;-2.00;99.90
11140;DHT22;5624;49.388;11.350;2024-01-15T09:44:31;-1.90;99.90
11140;DHT22;5624;49.388;11.350;2024-01-15T09:46:57;-1.80;99.90
11140;DHT22;5624;49.388;11.350;2024-01-15T09:49:23;-1.80;99.90
11140;DHT22;5624;49.388;11.350;2024-01-15T09:51:49;-1.80;99.90
11140;DHT22;5624;49.388;11.350;2024-01-15T09:54:15;-1.70;99.90
11140;DHT22;5624;49.388;11.350;2024-01-15T09:56:45;-1.70;99.90
11140;DHT22;5624;49.388;11.350;2024-01-15T09:59:14;-1.70;99.90
11140;DHT22;5624;49.388;11.350;2024-01-15T10:01:40;-1.70;99.90
11140;DHT22;5624;49.388;11.350;2024-01-15T10:04:06;-1.60;99.90
11140;DHT22;5624;49.388;11.350;2024-01-15T10:06:32;-1.50;99.90
11140;DHT22;5624;49.388;11.350;2024-01-15T10:08:59;-1.40;99.90
11140;DHT22;5624;49.388;11.350;2024-01-15T10:11:25;-1.30;99.90
11140;DHT22;5624;49.388;11.350;2024-01-15T10:13:50;-1.30;99.90
11140;DHT22;5624;49.388;11.350;2024-01-15T10:16:19;-1.30;99.90
11140;DHT22;5624;49.388;11.350;2024-01-15T10:18:44;-1.30;99.90
11140;DHT22;5624;49.388;11.350;2024-01-15T10:21:10;-1.30;99.90
11140;DHT22;5624;49.388;11.350;2024-01-15T10:23:35;-1.30;99.90
11140;DHT22;5624;49.388;11.350;2024-01-15T10:26:02;-1.30;99.90
11140;DHT22;5624;49.388;11.350;2024-01-15T10:28:28;-1.30;99.90
11140;DHT22;5624;49.388;11.350;2024-01-15T10:30:57;-1.40;99.90
11140;DHT22;5624;49.388;11.350;2024-01-15T10:33:24;-1.40;99.90
11140;DHT22;5624;49.388;11.350;2024-01-15T10:35:57;-1.50;99.90
11140;DHT22;5624;49.388;11.350;2024-01-15T10:38:24;-1.50;99.90
11140;DHT22;5624;49.388;11.350;2024-01-15T10:40:54;-1.50;99.90
11140;DHT22;5624;49.388;11.350;2024-01-15T10:43:20;-1.40;99.90
11140;DHT22;5624;49.388;11.350;2024-01-15T10:45:48;-1.40;99.90
11140;DHT22;5624;49.388;11.350;2024-01-15T10:48:15;-1.30;99.90
11140;DHT22;5624;49.388;11.350;2024-01-15T10:50:41;-1.40;99.90
11140;DHT22;5624;49.388;11.350;2024-01-15T10:53:08;-1.40;99.90
11140;DHT22;5624;49.388;11.350;2024-01-15T10:55:35;-1.40;99.90
11140;DHT22;5624;49.388;11.350;2024-01-15T10:58:03;-1.40;99.90
11140;DHT22;5624;49.388;11.350;2024-01-15T11:00:33;-1.40;99.90
11140;DHT22;5624;49.388;11.350;2024-01-15T11:03:01;-1.40;99.90
11140;DHT22;5624;49.388;11.350;2024-01-15T11:05:27;-1.40;99.90
11140;DHT22;5624;49.388;11.350;2024-01-15T11:07:55;-1.40;99.90
11140;DHT22;5624;49.388;11.350;2024-01-15T11:13:39;-1.50;99.90
11140;DHT22;5624;49.388;11.350;2024-01-15T11:16:07;-1.50;99.90
11140;DHT22;5624;49.388;11.350;2024-01-15T11:18:55;-1.40;99.90
11140;DHT22;5624;49.388;11.350;2024-01-15T11:21:27;-1.40;99.90
11140;DHT22;5624;49.388;11.350;2024-01-15T11:23:56;-1.40;99.90
11140;DHT22;5624;49.388;11.350;2024-01-15T11:28:57;-1.40;99.90
11140;DHT22;5624;49.388;11.350;2024-01-15T11:34:12;-1.30;99.90
11140;DHT22;5624;49.388;11.350;2024-01-15T11:42:01;-1.20;99.90
11140;DHT22;5624;49.388;11.350;2024-01-15T11:44:27;-1.30;99.90
11140;DHT22;5624;49.388;11.350;2024-01-15T11:47:02;-1.30;99.90
11140;DHT22;5624;49.388;11.350;2024-01-15T11:52:38;-1.30;99.90
11140;DHT22;5624;49.388;11.350;2024-01-15T11:55:43;-1.30;99.90
11140;DHT22;5624;49.388;11.350;2024-01-15T11:58:09;-1.20;99.90
11140;DHT22;5624;49.388;11.350;2024-01-15T12:00:39;-1.20;99.90
11140;DHT22;5624;49.388;11.350;2024-01-15T12:03:06;-1.10;99.90
11140;DHT22;5624;49.388;11.350;2024-01-15T12:05:31;-1.10;99.90
11140;DHT22;5624;49.388;11.350;2024-01-15T12:07:57;-1.20;99.90
11140;DHT22;5624;49.388;11.350;2024-01-15T12:10:22;-1.20;99.90
11140;DHT22;5624;49.388;11.350;2024-01-15T12:12:58;-1.30;99.90
11140;DHT22;5624;49.388;11.350;2024-01-15T12:15:26;-1.30;99.90
11140;DHT22;5624;49.388;11.350;2024-01-15T12:17:52;-1.30;99.90
11140;DHT22;5624;49.388;11.350;2024-01-15T12:20:19;-1.30;99.90
11140;DHT22;5624;49.388;11.350;2024-01-15T12:22:45;-1.30;99.90
11140;DHT22;5624;49.388;11.350;2024-01-15T12:25:11;-1.40;99.90
11140;DHT22;5624;49.388;11.350;2024-01-15T12:27:37;-1.20;99.90
11140;DHT22;5624;49.388;11.350;2024-01-15T12:30:03;-1.20;99.90
11140;DHT22;5624;49.388;11.350;2024-01-15T12:32:29;-1.10;99.90
11140;DHT22;5624;49.388;11.350;2024-01-15T12:34:55;-1.20;99.90
11140;DHT22;5624;49.388;11.350;2024-01-15T12:37:21;-1.20;99.90
11140;DHT22;5624;49.388;11.350;2024-01-15T12:39:47;-1.20;99.90
11140;DHT22;5624;49.388;11.350;2024-01-15T12:42:16;-1.10;99.90
11140;DHT22;5624;49.388;11.350;2024-01-15T12:44:42;-1.20;99.90
11140;DHT22;5624;49.388;11.350;2024-01-15T12:47:08;-1.10;99.90
11140;DHT22;5624;49.388;11.350;2024-01-15T12:49:36;-1.10;99.90
11140;DHT22;5624;49.388;11.350;2024-01-15T12:52:03;-1.20;99.90
11140;DHT22;5624;49.388;11.350;2024-01-15T12:54:28;-1.20;99.90
11140;DHT22;5624;49.388;11.350;2024-01-15T12:56:54;-1.20;99.90
11140;DHT22;5624;49.388;11.350;2024-01-15T12:59:19;-1.30;99.90
11140;DHT22;5624;49.388;11.350;2024-01-15T13:01:46;-1.30;99.90
11140;DHT22;5624;49.388;11.350;2024-01-15T13:04:20;-1.20;99.90
11140;DHT22;5624;49.388;11.350;2024-01-15T13:06:46;-1.20;99.90
11140;DHT22;5624;49.388;11.350;2024-01-15T13:09:11;-1.10;99.90
11140;DHT22;5624;49.388;11.350;2024-01-15T13:11:37;-1.10;99.90
11140;DHT22;5624;49.388;11.350;2024-01-15T13:14:03;-1.20;99.90
11140;DHT22;5624;49.388;11.350;2024-01-15T13:16:28;-1.20;99.90
11140;DHT22;5624;49.388;11.350;2024-01-15T13:18:55;-1.30;99.90
11140;DHT22;5624;49.388;11.350;2024-01-15T13:21:21;-1.20;99.90
11140;DHT22;5624;49.388;11.350;2024-01-15T13:23:47;-1.20;99.90
11140;DHT22;5624;49.388;11.350;2024-01-15T13:26:12;-1.10;99.90
11140;DHT22;5624;49.388;11.350;2024-01-15T13:28:38;-1.20;99.90
11140;DHT22;5624;49.388;11.350;2024-01-15T13:31:04;-1.30;99.90
11140;DHT22;5624;49.388;11.350;2024-01-15T13:33:30;-1.20;99.90
11140;DHT22;5624;49.388;11.350;2024-01-15T13:35:55;-1.20;99.90
11140;DHT22;5624;49.388;11.350;2024-01-15T13:38:21;-1.20;99.90
11140;DHT22;5624;49.388;11.350;2024-01-15T13:40:47;-1.20;99.90
11140;DHT22;5624;49.388;11.350;2024-01-15T13:43:12;-1.20;99.90
11140;DHT22;5624;49.388;11.350;2024-01-15T13:45:41;-1.30;99.90
11140;DHT22;5624;49.388;11.350;2024-01-15T13:48:06;-1.30;99.90
11140;DHT22;5624;49.388;11.350;2024-01-15T13:50:34;-1.30;99.90
11140;DHT22;5624;49.388;11.350;2024-01-15T13:53:00;-1.30;99.90
11140;DHT22;5624;49.388;11.350;2024-01-15T13:55:26;-1.30;99.90
11140;DHT22;5624;49.388;11.350;2024-01-15T13:57:51;-1.40;99.90
11140;DHT22;5624;49.388;11.350;2024-01-15T14:00:17;-1.40;99.90
11140;DHT22;5624;49.388;11.350;2024-01-15T14:02:45;-1.30;99.90
11140;DHT22;5624;49.388;11.350;2024-01-15T14:05:12;-1.30;99.90
11140;DHT22;5624;49.388;11.350;2024-01-15T14:07:41;-1.40;99.90
11140;DHT22;5624;49.388;11.350;2024-01-15T14:10:09;-1.30;99.90
11140;DHT22;5624;49.388;11.350;2024-01-15T14:12:35;-1.40;99.90
11140;DHT22;5624;49.388;11.350;2024-01-15T14:15:02;-1.40;99.90
11140;DHT22;5624;49.388;11.350;2024-01-15T14:17:27;-1.30;99.90
11140;DHT22;5624;49.388;11.350;2024-01-15T14:19:53;-1.40;99.90
11140;DHT22;5624;49.388;11.350;2024-01-15T14:22:19;-1.40;99.90
11140;DHT22;5624;49.388;11.350;2024-01-15T14:24:44;-1.40;99.90
11140;DHT22;5624;49.388;11.350;2024-01-15T14:27:10;-1.40;99.90
11140;DHT22;5624;49.388;11.350;2024-01-15T14:29:35;-1.40;99.90
11140;DHT22;5624;49.388;11.350;2024-01-15T14:32:01;-1.30;99.90
11140;DHT22;5624;49.388;11.350;2024-01-15T14:34:27;-1.30;99.90
11140;DHT22;5624;49.388;11.350;2024-01-15T14:36:53;-1.40;99.90
11140;DHT22;5624;49.388;11.350;2024-01-15T14:39:19;-1.40;99.90
11140;DHT22;5624;49.388;11.350;2024-01-15T14:41:45;-1.50;99.90
11140;DHT22;5624;49.388;11.350;2024-01-15T14:44:11;-1.40;99.90
11140;DHT22;5624;49.388;11.350;2024-01-15T14:46:37;-1.40;99.90
11140;DHT22;5624;49.388;11.350;2024-01-15T14:49:03;-1.40;99.90
11140;DHT22;5624;49.388;11.350;2024-01-15T14:51:29;-1.40;99.90
11140;DHT22;5624;49.388;11.350;2024-01-15T14:53:54;-1.40;99.90
11140;DHT22;5624;49.388;11.350;2024-01-15T14:56:20;-1.40;99.90
11140;DHT22;5624;49.388;11.350;2024-01-15T14:58:45;-1.50;99.90
11140;DHT22;5624;49.388;11.350;2024-01-15T15:01:12;-1.50;99.90
11140;DHT22;5624;49.388;11.350;2024-01-15T15:03:38;-1.50;99.90
11140;DHT22;5624;49.388;11.350;2024-01-15T15:06:03;-1.60;99.90
11140;DHT22;5624;49.388;11.350;2024-01-15T15:08:29;-1.50;99.90
11140;DHT22;5624;49.388;11.350;2024-01-15T15:10:54;-1.60;99.90
11140;DHT22;5624;49.388;11.350;2024-01-15T15:13:22;-1.70;99.90
11140;DHT22;5624;49.388;11.350;2024-01-15T15:15:48;-1.70;99.90
11140;DHT22;5624;49.388;11.350;2024-01-15T15:18:14;-1.60;99.90
11140;DHT22;5624;49.388;11.350;2024-01-15T15:20:39;-1.70;99.90
11140;DHT22;5624;49.388;11.350;2024-01-15T15:23:05;-1.70;99.90
11140;DHT22;5624;49.388;11.350;2024-01-15T15:25:34;-1.70;99.90
11140;DHT22;5624;49.388;11.350;2024-01-15T15:28:00;-1.80;99.90
11140;DHT22;5624;49.388;11.350;2024-01-15T15:30:26;-1.80;99.90
11140;DHT22;5624;49.388;11.350;2024-01-15T15:32:51;-1.80;99.90
11140;DHT22;5624;49.388;11.350;2024-01-15T15:35:17;-1.90;99.90
11140;DHT22;5624;49.388;11.350;2024-01-15T15:37:42;-1.90;99.90
11140;DHT22;5624;49.388;11.350;2024-01-15T15:40:08;-1.90;99.90